createdAt,value
2018-07-31T00:00:03.642Z,27.02
2018-07-31T00:01:03.687Z,27.10
2018-07-31T00:02:03.714Z,26.92
2018-07-31T00:03:03.746Z,27.05
2018-07-31T00:04:03.755Z,27.01
2018-07-31T00:05:03.807Z,26.95
2018-07-31T00:06:03.802Z,26.96
2018-07-31T00:07:03.860Z,27.13
2018-07-31T00:08:03.884Z,27.14
2018-07-31T00:09:03.900Z,27.05
2018-07-31T00:10:03.919Z,26.98
2018-07-31T00:11:03.944Z,26.94
2018-07-31T00:12:03.980Z,26.94
2018-07-31T00:13:04.011Z,27.11
2018-07-31T00:14:04.027Z,27.11
2018-07-31T00:15:04.057Z,27.06
2018-07-31T00:16:04.080Z,27.05
2018-07-31T00:17:04.104Z,27.02
2018-07-31T00:18:04.151Z,26.98
2018-07-31T00:19:04.180Z,27.10
2018-07-31T00:20:04.196Z,27.10
2018-07-31T00:21:04.224Z,27.01
2018-07-31T00:22:04.251Z,27.10
2018-07-31T00:23:04.377Z,27.05
2018-07-31T00:25:04.370Z,27.04
2018-07-31T00:26:04.364Z,26.95
2018-07-31T00:27:04.415Z,26.98
2018-07-31T00:28:04.440Z,26.96
2018-07-31T00:29:04.447Z,26.99
2018-07-31T00:30:04.471Z,27.01
2018-07-31T00:31:04.504Z,26.92
2018-07-31T00:32:04.538Z,26.79
2018-07-31T00:33:04.555Z,26.81
2018-07-31T00:34:04.688Z,26.79
2018-07-31T00:35:04.616Z,26.91
2018-07-31T00:36:04.641Z,26.80
2018-07-31T00:37:04.671Z,26.87
2018-07-31T00:38:04.700Z,26.86
2018-07-31T00:39:04.716Z,26.76
2018-07-31T00:40:04.745Z,26.81
2018-07-31T00:41:04.774Z,26.69
2018-07-31T00:42:04.811Z,26.77
2018-07-31T00:43:04.854Z,26.81
2018-07-31T00:44:04.859Z,27.02
2018-07-31T00:45:04.893Z,26.76
2018-07-31T00:46:04.918Z,26.76
2018-07-31T00:47:04.945Z,26.74
2018-07-31T00:48:04.973Z,26.74
2018-07-31T00:49:05.008Z,26.67
2018-07-31T00:50:05.035Z,26.64
2018-07-31T00:51:05.047Z,26.64
2018-07-31T00:52:05.082Z,26.65
2018-07-31T00:53:05.113Z,26.57
2018-07-31T00:54:05.137Z,26.42
2018-07-31T00:55:05.166Z,26.62
2018-07-31T00:56:05.199Z,26.81
2018-07-31T00:57:05.238Z,26.62
2018-07-31T00:58:05.401Z,26.50
2018-07-31T00:59:05.293Z,26.46
2018-07-31T01:00:05.313Z,26.61
2018-07-31T01:01:05.332Z,26.55
2018-07-31T01:02:05.363Z,26.59
2018-07-31T01:03:05.387Z,26.57
2018-07-31T01:04:05.416Z,26.58
2018-07-31T01:05:05.560Z,26.61
2018-07-31T01:06:05.465Z,26.62
2018-07-31T01:07:05.493Z,26.65
2018-07-31T01:08:05.600Z,26.73
2018-07-31T01:09:05.574Z,26.59
2018-07-31T01:10:05.579Z,26.58
2018-07-31T01:11:05.656Z,26.55
2018-07-31T01:12:05.636Z,26.47
2018-07-31T01:13:05.673Z,26.54
2018-07-31T01:14:05.687Z,26.57
2018-07-31T01:15:05.732Z,26.47
2018-07-31T01:16:05.754Z,26.49
2018-07-31T01:17:05.775Z,26.59
2018-07-31T01:18:05.799Z,26.49
2018-07-31T01:19:05.834Z,26.50
2018-07-31T01:20:05.862Z,26.40
2018-07-31T01:21:05.892Z,26.27
2018-07-31T01:22:05.922Z,26.21
2018-07-31T01:23:05.954Z,26.21
2018-07-31T01:24:05.964Z,26.15
2018-07-31T01:25:05.993Z,26.17
2018-07-31T01:26:06.035Z,25.99
2018-07-31T01:28:06.088Z,26.25
2018-07-31T01:29:06.099Z,26.25
2018-07-31T01:30:06.131Z,26.37
2018-07-31T01:31:06.164Z,26.36
2018-07-31T01:32:06.184Z,26.02
2018-07-31T01:33:06.207Z,26.06
2018-07-31T01:34:06.229Z,25.87
2018-07-31T01:35:06.260Z,25.89
2018-07-31T01:36:06.301Z,25.90
2018-07-31T01:37:06.314Z,25.74
2018-07-31T01:38:06.348Z,25.91
2018-07-31T01:39:06.373Z,25.74
2018-07-31T01:40:06.400Z,25.72
2018-07-31T01:41:06.433Z,25.77
2018-07-31T01:42:06.465Z,25.79
2018-07-31T01:43:06.496Z,25.83
2018-07-31T01:44:06.514Z,25.84
2018-07-31T01:45:06.532Z,25.94
2018-07-31T01:46:06.659Z,25.89
2018-07-31T01:47:06.601Z,26.01
2018-07-31T01:48:06.663Z,26.06
2018-07-31T01:49:06.675Z,26.08
2018-07-31T01:50:06.679Z,26.04
2018-07-31T01:52:06.760Z,25.86
2018-07-31T01:53:06.752Z,25.93
2018-07-31T01:54:06.786Z,25.74
2018-07-31T01:55:06.809Z,25.71
2018-07-31T01:56:06.833Z,25.75
2018-07-31T01:57:06.862Z,25.75
2018-07-31T01:58:06.890Z,25.87
2018-07-31T01:59:06.915Z,25.82
2018-07-31T02:00:06.938Z,26.01
2018-07-31T02:01:06.967Z,25.94
2018-07-31T02:02:07.003Z,25.97
2018-07-31T02:03:07.024Z,26.02
2018-07-31T02:04:07.058Z,26.06
2018-07-31T02:05:07.078Z,25.91
2018-07-31T02:06:07.109Z,25.86
2018-07-31T02:07:07.150Z,25.93
2018-07-31T02:09:07.188Z,25.99
2018-07-31T02:10:07.213Z,25.98
2018-07-31T02:11:07.245Z,25.89
2018-07-31T02:12:07.271Z,25.74
2018-07-31T02:13:07.298Z,25.98
2018-07-31T02:14:07.329Z,25.83
2018-07-31T02:15:07.353Z,25.83
2018-07-31T02:16:07.378Z,25.84
2018-07-31T02:17:07.407Z,25.82
2018-07-31T02:18:07.427Z,25.86
2018-07-31T02:20:07.489Z,25.90
2018-07-31T02:22:07.540Z,25.82
2018-07-31T02:23:07.571Z,26.01
2018-07-31T02:24:07.590Z,25.77
2018-07-31T02:25:07.621Z,25.74
2018-07-31T02:26:07.660Z,25.77
2018-07-31T02:27:07.677Z,25.74
2018-07-31T02:28:07.805Z,25.75
2018-07-31T02:29:07.734Z,25.74
2018-07-31T02:30:07.761Z,25.65
2018-07-31T02:31:07.783Z,25.54
2018-07-31T02:32:07.812Z,25.71
2018-07-31T02:33:07.842Z,25.90
2018-07-31T02:34:07.864Z,25.80
2018-07-31T02:35:07.895Z,25.56
2018-07-31T02:36:07.917Z,25.54
2018-07-31T02:37:07.961Z,25.50
2018-07-31T02:38:07.978Z,25.54
2018-07-31T02:39:07.999Z,25.47
2018-07-31T02:40:08.027Z,25.38
2018-07-31T02:41:08.050Z,25.42
2018-07-31T02:42:08.084Z,25.37
2018-07-31T02:43:08.104Z,25.38
2018-07-31T02:44:08.129Z,25.47
2018-07-31T02:45:08.165Z,25.57
2018-07-31T02:46:08.255Z,25.52
2018-07-31T02:47:08.223Z,25.46
2018-07-31T02:48:08.269Z,25.38
2018-07-31T02:49:08.286Z,25.50
2018-07-31T02:50:08.295Z,25.43
2018-07-31T02:51:08.321Z,25.30
2018-07-31T02:52:08.351Z,25.47
2018-07-31T02:53:08.376Z,25.46
2018-07-31T02:55:08.492Z,25.20
2018-07-31T02:56:08.466Z,25.05
2018-07-31T02:57:08.488Z,25.09
2018-07-31T02:58:08.577Z,25.15
2018-07-31T02:59:08.539Z,25.09
2018-07-31T03:00:08.569Z,25.17
2018-07-31T03:01:08.592Z,25.15
2018-07-31T03:02:08.615Z,25.19
2018-07-31T03:03:08.640Z,25.28
2018-07-31T03:04:08.672Z,25.15
2018-07-31T03:05:08.701Z,25.32
2018-07-31T03:06:08.759Z,25.31
2018-07-31T03:07:08.751Z,25.22
2018-07-31T03:08:08.802Z,25.13
2018-07-31T03:09:08.805Z,25.20
2018-07-31T03:10:08.830Z,25.25
2018-07-31T03:11:08.867Z,25.24
2018-07-31T03:12:08.885Z,25.22
2018-07-31T03:13:08.909Z,25.32
2018-07-31T03:15:08.974Z,25.25
2018-07-31T03:16:08.984Z,25.42
2018-07-31T03:17:09.021Z,25.38
2018-07-31T03:18:09.045Z,25.35
2018-07-31T03:19:09.065Z,25.32
2018-07-31T03:20:09.103Z,25.24
2018-07-31T03:21:09.129Z,25.37
2018-07-31T03:22:09.160Z,25.37
2018-07-31T03:23:09.181Z,25.25
2018-07-31T03:24:09.246Z,25.44
2018-07-31T03:25:09.233Z,25.46
2018-07-31T03:26:09.304Z,25.35
2018-07-31T03:27:09.284Z,25.39
2018-07-31T03:28:09.328Z,25.27
2018-07-31T03:29:09.344Z,25.15
2018-07-31T03:30:09.369Z,25.13
2018-07-31T03:31:09.391Z,25.25
2018-07-31T03:32:09.422Z,25.17
2018-07-31T03:33:09.441Z,25.10
2018-07-31T03:34:09.465Z,25.09
2018-07-31T03:35:09.500Z,25.17
2018-07-31T03:36:09.516Z,25.05
2018-07-31T03:38:09.572Z,24.88
2018-07-31T03:39:09.602Z,24.91
2018-07-31T03:40:09.636Z,24.90
2018-07-31T03:41:09.657Z,25.02
2018-07-31T03:42:09.685Z,24.97
2018-07-31T03:43:09.705Z,24.95
2018-07-31T03:44:09.734Z,25.05
2018-07-31T03:46:09.789Z,25.24
2018-07-31T03:47:09.820Z,25.30
2018-07-31T03:48:09.943Z,25.25
2018-07-31T03:49:09.869Z,25.19
2018-07-31T03:50:10.056Z,25.17
2018-07-31T03:51:09.916Z,25.38
2018-07-31T03:52:09.952Z,25.20
2018-07-31T03:53:09.968Z,25.12
2018-07-31T03:54:10.005Z,25.16
2018-07-31T03:55:10.030Z,25.02
2018-07-31T03:56:10.056Z,25.16
2018-07-31T03:57:10.077Z,25.19
2018-07-31T03:58:10.115Z,25.22
2018-07-31T03:59:10.180Z,25.10
2018-07-31T04:00:10.162Z,25.17
2018-07-31T04:01:10.270Z,25.05
2018-07-31T04:02:10.220Z,24.98
2018-07-31T04:04:10.262Z,25.01
2018-07-31T04:05:10.297Z,25.15
2018-07-31T04:06:10.317Z,25.06
2018-07-31T04:07:10.345Z,25.06
2018-07-31T04:08:10.372Z,24.95
2018-07-31T04:09:10.403Z,24.83
2018-07-31T04:10:10.423Z,24.97
2018-07-31T04:11:10.451Z,24.97
2018-07-31T04:12:10.550Z,25.17
2018-07-31T04:13:10.519Z,25.02
2018-07-31T04:14:10.534Z,24.92
2018-07-31T04:15:10.552Z,24.95
2018-07-31T04:16:10.626Z,24.94
2018-07-31T04:17:10.666Z,24.80
2018-07-31T04:18:10.643Z,24.95
2018-07-31T04:19:10.663Z,24.88
2018-07-31T04:20:10.689Z,24.77
2018-07-31T04:21:10.713Z,24.91
2018-07-31T04:22:10.745Z,24.83
2018-07-31T04:23:10.835Z,24.94
2018-07-31T04:24:10.800Z,25.01
2018-07-31T04:26:10.847Z,24.88
2018-07-31T04:27:10.865Z,24.97
2018-07-31T04:28:10.903Z,24.98
2018-07-31T04:29:10.928Z,24.77
2018-07-31T04:30:11.002Z,24.91
2018-07-31T04:31:10.976Z,25.02
2018-07-31T04:32:11.000Z,25.00
2018-07-31T04:33:11.049Z,24.94
2018-07-31T04:34:11.084Z,24.91
2018-07-31T04:35:11.091Z,24.90
2018-07-31T04:36:11.152Z,24.85
2018-07-31T04:37:11.134Z,24.79
2018-07-31T04:38:11.160Z,24.75
2018-07-31T04:39:11.196Z,24.71
2018-07-31T04:40:11.217Z,24.90
2018-07-31T04:41:11.289Z,24.92
2018-07-31T04:43:11.303Z,25.05
2018-07-31T04:44:11.318Z,24.87
2018-07-31T04:46:11.370Z,24.91
2018-07-31T04:47:11.399Z,24.95
2018-07-31T04:48:11.424Z,24.80
2018-07-31T04:49:11.449Z,24.80
2018-07-31T04:50:11.487Z,24.82
2018-07-31T04:51:11.506Z,24.83
2018-07-31T04:52:11.545Z,24.95
2018-07-31T04:53:11.558Z,24.98
2018-07-31T04:54:11.603Z,24.91
2018-07-31T04:55:11.614Z,25.01
2018-07-31T04:56:11.645Z,24.92
2018-07-31T04:57:11.681Z,24.95
2018-07-31T04:58:11.711Z,24.98
2018-07-31T04:59:11.723Z,24.91
2018-07-31T05:00:11.739Z,25.09
2018-07-31T05:01:11.774Z,25.09
2018-07-31T05:02:11.800Z,24.98
2018-07-31T05:03:11.820Z,24.97
2018-07-31T05:04:11.906Z,24.92
2018-07-31T05:05:11.935Z,24.94
2018-07-31T05:06:11.912Z,24.91
2018-07-31T05:07:11.977Z,24.87
2018-07-31T05:08:11.945Z,24.91
2018-07-31T05:09:11.972Z,24.82
2018-07-31T05:10:12.013Z,24.87
2018-07-31T05:11:12.084Z,24.88
2018-07-31T05:12:12.070Z,24.97
2018-07-31T05:13:12.079Z,24.85
2018-07-31T05:14:12.125Z,24.91
2018-07-31T05:15:12.141Z,24.94
2018-07-31T05:16:12.265Z,24.90
2018-07-31T05:17:12.196Z,25.00
2018-07-31T05:19:12.269Z,25.02
2018-07-31T05:20:12.269Z,24.90
2018-07-31T05:21:12.292Z,24.95
2018-07-31T05:22:12.356Z,24.98
2018-07-31T05:23:12.363Z,24.94
2018-07-31T05:24:12.374Z,25.07
2018-07-31T05:25:12.418Z,25.15
2018-07-31T05:26:12.439Z,25.05
2018-07-31T05:27:12.488Z,25.10
2018-07-31T05:28:12.482Z,25.16
2018-07-31T05:29:12.501Z,25.16
2018-07-31T05:30:12.594Z,25.15
2018-07-31T05:31:12.560Z,25.19
2018-07-31T05:32:12.609Z,25.15
2018-07-31T05:33:12.612Z,25.16
2018-07-31T05:35:12.688Z,25.20
2018-07-31T05:36:12.696Z,25.10
2018-07-31T05:37:12.712Z,25.20
2018-07-31T05:38:12.760Z,25.25
2018-07-31T05:39:12.787Z,25.22
2018-07-31T05:40:12.795Z,25.25
2018-07-31T05:42:12.854Z,25.32
2018-07-31T05:43:12.879Z,25.30
2018-07-31T05:44:12.905Z,25.25
2018-07-31T05:45:12.937Z,25.24
2018-07-31T05:46:12.960Z,25.31
2018-07-31T05:47:12.987Z,25.38
2018-07-31T05:48:13.007Z,25.46
2018-07-31T05:49:13.044Z,25.53
2018-07-31T05:50:13.064Z,25.47
2018-07-31T05:51:13.105Z,25.54
2018-07-31T05:52:13.123Z,25.34
2018-07-31T05:53:13.195Z,25.35
2018-07-31T05:54:13.166Z,25.16
2018-07-31T05:55:13.197Z,25.13
2018-07-31T05:56:13.233Z,25.20
2018-07-31T05:57:13.251Z,25.25
2018-07-31T05:58:13.275Z,25.28
2018-07-31T05:59:13.301Z,25.07
2018-07-31T06:00:13.352Z,25.24
2018-07-31T06:01:13.377Z,25.24
2018-07-31T06:02:13.382Z,25.20
2018-07-31T06:03:13.405Z,25.32
2018-07-31T06:04:13.447Z,25.38
2018-07-31T06:05:13.455Z,25.35
2018-07-31T06:06:13.492Z,25.25
2018-07-31T06:07:13.521Z,25.30
2018-07-31T06:08:13.535Z,25.24
2018-07-31T06:09:13.569Z,25.38
2018-07-31T06:10:13.599Z,25.34
2018-07-31T06:11:13.637Z,25.50
2018-07-31T06:12:13.652Z,25.32
2018-07-31T06:13:13.678Z,25.39
2018-07-31T06:14:13.698Z,25.46
2018-07-31T06:15:13.766Z,25.54
2018-07-31T06:17:13.784Z,25.46
2018-07-31T06:18:13.802Z,25.54
2018-07-31T06:19:13.836Z,25.35
2018-07-31T06:20:13.867Z,25.54
2018-07-31T06:21:13.898Z,25.61
2018-07-31T06:22:13.931Z,25.61
2018-07-31T06:23:13.940Z,25.27
2018-07-31T06:24:13.975Z,25.13
2018-07-31T06:25:14.000Z,25.17
2018-07-31T06:26:14.030Z,25.27
2018-07-31T06:27:14.049Z,25.35
2018-07-31T06:28:14.083Z,25.54
2018-07-31T06:29:14.095Z,25.56
2018-07-31T06:30:14.134Z,25.62
2018-07-31T06:31:14.164Z,25.61
2018-07-31T06:33:14.239Z,25.64
2018-07-31T06:34:14.235Z,25.72
2018-07-31T06:35:14.285Z,25.71
2018-07-31T06:36:14.307Z,25.74
2018-07-31T06:38:14.357Z,25.61
2018-07-31T06:39:14.413Z,25.54
2018-07-31T06:40:14.409Z,25.65
2018-07-31T06:41:14.426Z,25.64
2018-07-31T06:42:14.469Z,25.82
2018-07-31T06:43:14.498Z,25.77
2018-07-31T06:45:14.539Z,25.77
2018-07-31T06:46:14.560Z,25.77
2018-07-31T06:47:14.588Z,25.79
2018-07-31T06:48:14.627Z,25.91
2018-07-31T06:49:14.656Z,25.91
2018-07-31T06:50:14.679Z,25.77
2018-07-31T06:51:14.710Z,25.79
2018-07-31T06:52:14.724Z,25.87
2018-07-31T06:53:14.747Z,25.86
2018-07-31T06:54:14.772Z,25.90
2018-07-31T06:55:14.816Z,25.86
2018-07-31T06:56:14.830Z,25.99
2018-07-31T06:57:14.860Z,26.05
2018-07-31T06:59:14.913Z,26.11
2018-07-31T07:00:14.936Z,26.06
2018-07-31T07:01:14.957Z,26.04
2018-07-31T07:02:15.000Z,26.04
2018-07-31T07:03:15.014Z,26.15
2018-07-31T07:04:15.042Z,26.24
2018-07-31T07:05:15.069Z,26.22
2018-07-31T07:06:15.107Z,26.25
2018-07-31T07:07:15.124Z,26.29
2018-07-31T07:08:15.172Z,26.35
2018-07-31T07:09:15.215Z,26.29
2018-07-31T07:10:15.200Z,26.37
2018-07-31T07:11:15.233Z,26.29
2018-07-31T07:12:15.258Z,26.42
2018-07-31T07:13:15.300Z,26.36
2018-07-31T07:14:15.315Z,26.35
2018-07-31T07:15:15.528Z,26.29
2018-07-31T07:16:15.380Z,26.37
2018-07-31T07:17:15.401Z,26.25
2018-07-31T07:18:15.426Z,26.22
2018-07-31T07:19:15.473Z,26.27
2018-07-31T07:20:15.488Z,26.35
2018-07-31T07:21:15.525Z,26.32
2018-07-31T07:22:15.548Z,26.46
2018-07-31T07:23:15.580Z,26.49
2018-07-31T07:24:15.594Z,26.52
2018-07-31T07:25:15.690Z,26.57
2018-07-31T07:26:15.651Z,26.46
2018-07-31T07:27:15.679Z,26.55
2018-07-31T07:28:15.709Z,26.54
2018-07-31T07:29:15.725Z,26.64
2018-07-31T07:30:15.755Z,26.64
2018-07-31T07:31:15.793Z,26.64
2018-07-31T07:32:15.825Z,26.74
2018-07-31T07:33:15.840Z,26.74
2018-07-31T07:34:15.872Z,26.79
2018-07-31T07:35:15.898Z,26.73
2018-07-31T07:36:15.918Z,26.72
2018-07-31T07:37:15.955Z,26.80
2018-07-31T07:38:15.990Z,26.77
2018-07-31T07:39:16.019Z,26.79
2018-07-31T07:40:16.062Z,26.76
2018-07-31T07:42:16.093Z,26.79
2018-07-31T07:43:16.117Z,26.84
2018-07-31T07:44:16.145Z,26.84
2018-07-31T07:45:16.171Z,26.84
2018-07-31T07:46:16.200Z,26.81
2018-07-31T07:47:16.224Z,26.91
2018-07-31T07:48:16.300Z,26.96
2018-07-31T07:49:16.287Z,26.91
2018-07-31T07:50:16.358Z,27.05
2018-07-31T07:51:16.353Z,27.05
2018-07-31T07:52:16.368Z,27.01
2018-07-31T07:53:16.407Z,27.02
2018-07-31T07:54:16.470Z,27.11
2018-07-31T07:55:16.448Z,27.10
2018-07-31T07:56:16.489Z,27.10
2018-07-31T07:57:16.531Z,27.13
2018-07-31T07:58:16.568Z,27.04
2018-07-31T07:59:16.562Z,27.11
2018-07-31T08:00:16.584Z,27.21
2018-07-31T08:01:16.672Z,27.21
2018-07-31T08:02:16.644Z,27.28
2018-07-31T08:03:16.675Z,27.20
2018-07-31T08:04:16.704Z,27.23
2018-07-31T08:05:16.731Z,27.31
2018-07-31T08:06:16.763Z,27.26
2018-07-31T08:07:16.794Z,27.24
2018-07-31T08:08:16.825Z,27.24
2018-07-31T08:09:16.860Z,27.38
2018-07-31T08:10:16.881Z,27.39
2018-07-31T08:11:16.921Z,27.38
2018-07-31T08:12:16.932Z,27.48
2018-07-31T08:13:16.953Z,27.42
2018-07-31T08:14:17.004Z,27.38
2018-07-31T08:15:17.016Z,27.38
2018-07-31T08:16:17.035Z,27.33
2018-07-31T08:17:17.102Z,27.36
2018-07-31T08:18:17.096Z,27.41
2018-07-31T08:19:17.144Z,27.51
2018-07-31T08:20:17.163Z,27.39
2018-07-31T08:21:17.181Z,27.39
2018-07-31T08:22:17.255Z,27.41
2018-07-31T08:23:17.263Z,27.48
2018-07-31T08:24:17.266Z,27.59
2018-07-31T08:25:17.305Z,27.62
2018-07-31T08:26:17.326Z,27.57
2018-07-31T08:27:17.346Z,27.53
2018-07-31T08:28:17.388Z,27.58
2018-07-31T08:30:17.569Z,27.70
2018-07-31T08:31:17.465Z,27.69
2018-07-31T08:32:17.524Z,27.67
2018-07-31T08:33:17.534Z,27.64
2018-07-31T08:34:17.598Z,27.70
2018-07-31T08:35:17.583Z,27.76
2018-07-31T08:37:17.633Z,27.82
2018-07-31T08:38:17.684Z,27.88
2018-07-31T08:39:17.689Z,27.95
2018-07-31T08:40:17.723Z,27.95
2018-07-31T08:41:17.837Z,28.01
2018-07-31T08:42:17.778Z,27.96
2018-07-31T08:43:17.800Z,27.94
2018-07-31T08:44:17.829Z,27.91
2018-07-31T08:45:17.859Z,28.06
2018-07-31T08:46:17.889Z,28.03
2018-07-31T08:47:17.919Z,27.98
2018-07-31T08:48:17.948Z,28.04
2018-07-31T08:49:17.984Z,27.94
2018-07-31T08:50:18.007Z,28.09
2018-07-31T08:51:18.090Z,28.17
2018-07-31T08:52:18.067Z,28.11
2018-07-31T08:53:18.100Z,28.06
2018-07-31T08:54:18.147Z,28.06
2018-07-31T08:55:18.151Z,28.06
2018-07-31T08:56:18.171Z,27.94
2018-07-31T08:57:18.281Z,28.06
2018-07-31T08:59:18.265Z,27.99
2018-07-31T09:00:18.293Z,28.04
2018-07-31T09:01:18.479Z,28.04
2018-07-31T09:02:18.353Z,28.04
2018-07-31T09:03:18.376Z,28.10
2018-07-31T09:04:18.414Z,28.21
2018-07-31T09:05:18.444Z,28.04
2018-07-31T09:06:18.482Z,28.10
2018-07-31T09:07:18.492Z,28.07
2018-07-31T09:08:18.575Z,28.26
2018-07-31T09:09:18.562Z,28.21
2018-07-31T09:10:18.579Z,28.14
2018-07-31T09:11:18.609Z,28.25
2018-07-31T09:12:18.646Z,28.29
2018-07-31T09:13:18.666Z,28.35
2018-07-31T09:14:18.695Z,28.29
2018-07-31T09:15:18.728Z,28.35
2018-07-31T09:17:18.782Z,28.29
2018-07-31T09:18:18.816Z,28.35
2018-07-31T09:19:18.871Z,28.17
2018-07-31T09:20:18.871Z,28.31
2018-07-31T09:21:18.900Z,28.40
2018-07-31T09:22:18.949Z,28.46
2018-07-31T09:23:19.013Z,28.48
2018-07-31T09:24:18.989Z,28.54
2018-07-31T09:25:19.018Z,28.43
2018-07-31T09:27:19.086Z,28.56
2018-07-31T09:28:19.102Z,28.50
2018-07-31T09:29:19.131Z,28.43
2018-07-31T09:30:19.179Z,28.47
2018-07-31T09:31:19.205Z,28.41
2018-07-31T09:32:19.216Z,28.40
2018-07-31T09:33:19.244Z,28.40
2018-07-31T09:34:19.294Z,28.43
2018-07-31T09:35:19.305Z,28.54
2018-07-31T09:36:19.356Z,28.59
2018-07-31T09:37:19.366Z,28.56
2018-07-31T09:38:19.397Z,28.48
2018-07-31T09:39:19.435Z,28.65
2018-07-31T09:40:19.459Z,28.47
2018-07-31T09:41:19.489Z,28.54
2018-07-31T09:42:19.517Z,28.66
2018-07-31T09:43:19.544Z,28.73
2018-07-31T09:44:19.568Z,28.63
2018-07-31T09:45:19.597Z,28.59
2018-07-31T09:46:19.621Z,28.90
2018-07-31T09:47:19.660Z,28.82
2018-07-31T09:48:19.685Z,28.73
2018-07-31T09:49:19.730Z,28.70
2018-07-31T09:50:19.748Z,28.80
2018-07-31T09:51:19.779Z,28.80
2018-07-31T09:52:19.884Z,28.88
2018-07-31T09:53:19.854Z,28.77
2018-07-31T09:54:19.877Z,28.84
2018-07-31T09:55:19.896Z,28.87
2018-07-31T09:57:19.961Z,29.00
2018-07-31T09:58:19.997Z,28.87
2018-07-31T09:59:20.011Z,28.90
2018-07-31T10:00:20.038Z,28.93
2018-07-31T10:01:20.091Z,28.91
2018-07-31T10:02:20.093Z,29.04
2018-07-31T10:03:20.143Z,29.16
2018-07-31T10:04:20.187Z,29.29
2018-07-31T10:05:20.263Z,29.15
2018-07-31T10:06:20.227Z,29.10
2018-07-31T10:07:20.258Z,29.26
2018-07-31T10:08:20.282Z,29.16
2018-07-31T10:09:20.313Z,29.07
2018-07-31T10:10:20.339Z,29.35
2018-07-31T10:11:20.367Z,29.43
2018-07-31T10:12:20.403Z,29.49
2018-07-31T10:13:20.433Z,29.52
2018-07-31T10:14:20.453Z,29.38
2018-07-31T10:15:20.481Z,29.41
2018-07-31T10:16:20.508Z,29.26
2018-07-31T10:17:20.542Z,29.20
2018-07-31T10:18:20.590Z,29.23
2018-07-31T10:19:20.605Z,29.19
2018-07-31T10:21:20.663Z,29.29
2018-07-31T10:22:20.699Z,29.38
2018-07-31T10:23:20.736Z,29.20
2018-07-31T10:24:20.759Z,29.37
2018-07-31T10:25:20.784Z,29.26
2018-07-31T10:26:20.814Z,29.62
2018-07-31T10:27:20.856Z,29.63
2018-07-31T10:28:20.868Z,29.47
2018-07-31T10:29:20.898Z,29.65
2018-07-31T10:30:20.931Z,29.55
2018-07-31T10:31:20.965Z,29.52
2018-07-31T10:32:21.006Z,29.35
2018-07-31T10:33:21.024Z,29.38
2018-07-31T10:34:21.103Z,29.41
2018-07-31T10:35:21.102Z,29.40
2018-07-31T10:36:21.117Z,29.53
2018-07-31T10:37:21.141Z,29.72
2018-07-31T10:38:21.188Z,29.75
2018-07-31T10:39:21.223Z,29.66
2018-07-31T10:40:21.240Z,29.57
2018-07-31T10:41:21.260Z,29.78
2018-07-31T10:42:21.298Z,29.68
2018-07-31T10:43:21.317Z,29.65
2018-07-31T10:44:21.362Z,29.70
2018-07-31T10:45:21.385Z,29.81
2018-07-31T10:46:21.429Z,29.72
2018-07-31T10:47:21.474Z,29.93
2018-07-31T10:48:21.481Z,29.79
2018-07-31T10:49:21.508Z,29.77
2018-07-31T10:50:21.537Z,29.82
2018-07-31T10:51:21.575Z,29.90
2018-07-31T10:53:21.626Z,30.00
2018-07-31T10:54:21.758Z,29.81
2018-07-31T10:55:21.683Z,29.92
2018-07-31T10:56:21.711Z,30.08
2018-07-31T10:57:21.745Z,29.96
2018-07-31T10:58:21.803Z,29.96
2018-07-31T10:59:21.806Z,29.89
2018-07-31T11:00:21.887Z,30.02
2018-07-31T11:01:21.944Z,29.84
2018-07-31T11:02:21.904Z,30.12
2018-07-31T11:03:21.955Z,29.94
2018-07-31T11:04:22.035Z,30.18
2018-07-31T11:05:22.018Z,30.47
2018-07-31T11:06:22.160Z,30.54
2018-07-31T11:07:22.054Z,30.47
2018-07-31T11:08:22.089Z,30.49
2018-07-31T11:09:22.116Z,30.52
2018-07-31T11:10:22.194Z,30.53
2018-07-31T11:11:22.173Z,30.57
2018-07-31T11:12:22.197Z,30.56
2018-07-31T11:13:22.312Z,30.52
2018-07-31T11:14:22.264Z,30.18
2018-07-31T11:15:22.287Z,30.21
2018-07-31T11:16:22.336Z,30.19
2018-07-31T11:17:22.352Z,30.18
2018-07-31T11:18:22.379Z,30.09
2018-07-31T11:19:22.418Z,30.03
2018-07-31T11:20:22.441Z,30.26
2018-07-31T11:21:22.549Z,30.46
2018-07-31T11:22:22.506Z,30.45
2018-07-31T11:23:22.541Z,30.50
2018-07-31T11:24:22.575Z,30.49
2018-07-31T11:25:22.604Z,30.71
2018-07-31T11:26:22.662Z,30.49
2018-07-31T11:27:22.705Z,30.37
2018-07-31T11:28:22.692Z,30.56
2018-07-31T11:29:22.722Z,30.52
2018-07-31T11:30:22.751Z,30.59
2018-07-31T11:31:22.793Z,30.71
2018-07-31T11:32:22.824Z,30.99
2018-07-31T11:33:22.855Z,30.94
2018-07-31T11:35:22.899Z,30.75
2018-07-31T11:36:22.933Z,31.11
2018-07-31T11:37:22.969Z,31.39
2018-07-31T11:38:23.050Z,31.36
2018-07-31T11:39:23.050Z,31.30
2018-07-31T11:40:23.066Z,31.15
2018-07-31T11:41:23.088Z,31.05
2018-07-31T11:42:23.149Z,31.02
2018-07-31T11:43:23.171Z,31.26
2018-07-31T11:44:23.198Z,31.53
2018-07-31T11:45:23.218Z,31.49
2018-07-31T11:46:23.244Z,31.53
2018-07-31T11:48:23.305Z,31.06
2018-07-31T11:49:23.345Z,30.98
2018-07-31T11:50:23.377Z,31.04
2018-07-31T11:51:23.411Z,31.24
2018-07-31T11:52:23.453Z,31.06
2018-07-31T11:53:23.468Z,31.05
2018-07-31T11:54:23.496Z,31.02
2018-07-31T11:55:23.556Z,31.11
2018-07-31T11:56:23.579Z,31.18
2018-07-31T11:57:23.594Z,31.50
2018-07-31T11:58:23.626Z,31.57
2018-07-31T11:59:23.665Z,31.72
2018-07-31T12:00:23.697Z,31.70
2018-07-31T12:01:23.763Z,31.70
2018-07-31T12:02:23.760Z,31.76
2018-07-31T12:03:23.784Z,31.53
2018-07-31T12:04:23.814Z,31.35
2018-07-31T12:06:23.886Z,31.58
2018-07-31T12:07:23.907Z,31.39
2018-07-31T12:08:23.940Z,31.39
2018-07-31T12:09:23.980Z,31.55
2018-07-31T12:10:24.007Z,31.57
2018-07-31T12:11:24.081Z,31.49
2018-07-31T12:12:24.073Z,31.53
2018-07-31T12:13:24.103Z,31.67
2018-07-31T12:14:24.133Z,31.93
2018-07-31T12:15:24.194Z,31.93
2018-07-31T12:16:24.275Z,31.79
2018-07-31T12:17:24.236Z,31.64
2018-07-31T12:18:24.264Z,31.54
2018-07-31T12:19:24.294Z,32.06
2018-07-31T12:20:24.334Z,31.95
2018-07-31T12:21:24.365Z,31.85
2018-07-31T12:22:24.399Z,31.64
2018-07-31T12:23:24.513Z,31.60
2018-07-31T12:24:24.459Z,31.76
2018-07-31T12:25:24.522Z,31.68
2018-07-31T12:26:24.518Z,31.96
2018-07-31T12:27:24.554Z,31.98
2018-07-31T12:28:24.586Z,31.76
2018-07-31T12:29:24.628Z,31.75
2018-07-31T12:31:24.695Z,31.53
2018-07-31T12:32:24.773Z,31.60
2018-07-31T12:33:24.752Z,31.55
2018-07-31T12:34:24.781Z,31.65
2018-07-31T12:35:24.813Z,31.77
2018-07-31T12:36:24.838Z,31.91
2018-07-31T12:37:24.867Z,31.75
2018-07-31T12:38:24.904Z,31.72
2018-07-31T12:39:24.937Z,31.76
2018-07-31T12:40:24.970Z,31.84
2018-07-31T12:41:24.999Z,32.11
2018-07-31T12:42:25.037Z,31.84
2018-07-31T12:43:25.062Z,31.73
2018-07-31T12:44:25.100Z,31.65
2018-07-31T12:45:25.137Z,31.85
2018-07-31T12:46:25.157Z,31.92
2018-07-31T12:47:25.205Z,31.87
2018-07-31T12:48:25.220Z,31.87
2018-07-31T12:49:25.262Z,32.02
2018-07-31T12:50:25.298Z,32.21
2018-07-31T12:51:25.332Z,32.36
2018-07-31T12:52:25.378Z,32.47
2018-07-31T12:53:25.390Z,32.20
2018-07-31T12:54:25.412Z,32.44
2018-07-31T12:55:25.467Z,32.44
2018-07-31T12:56:25.482Z,32.52
2018-07-31T12:57:25.514Z,32.35
2018-07-31T12:59:25.581Z,32.32
2018-07-31T13:00:25.608Z,32.25
2018-07-31T13:01:25.650Z,32.11
2018-07-31T13:02:25.674Z,32.25
2018-07-31T13:03:25.703Z,32.61
2018-07-31T13:04:25.745Z,32.55
2018-07-31T13:05:25.769Z,32.32
2018-07-31T13:06:25.802Z,32.57
2018-07-31T13:07:25.832Z,32.25
2018-07-31T13:08:25.866Z,32.14
2018-07-31T13:09:25.912Z,32.21
2018-07-31T13:10:25.922Z,32.35
2018-07-31T13:11:25.970Z,32.47
2018-07-31T13:12:26.005Z,32.59
2018-07-31T13:13:26.030Z,32.66
2018-07-31T13:14:26.055Z,32.57
2018-07-31T13:15:26.096Z,32.39
2018-07-31T13:16:26.120Z,32.07
2018-07-31T13:17:26.151Z,32.30
2018-07-31T13:18:26.185Z,32.48
2018-07-31T13:19:26.228Z,32.33
2018-07-31T13:20:26.248Z,32.33
2018-07-31T13:21:26.314Z,32.48
2018-07-31T13:22:26.323Z,32.33
2018-07-31T13:23:26.346Z,32.39
2018-07-31T13:24:26.381Z,32.48
2018-07-31T13:25:26.412Z,32.35
2018-07-31T13:26:26.445Z,32.13
2018-07-31T13:27:26.477Z,31.91
2018-07-31T13:28:26.515Z,31.88